Time,TemperatureF,DewpointF,PressureIn,WindDirection,WindDirectionDegrees,WindSpeedMPH,WindSpeedGustMPH,Humidity,HourlyPrecipIn,Conditions,Clouds,dailyrainin,SoftwareType,DateUTC
2013-04-14 00:12:00,47.3,46.8,29.72,NNW,337,0.0,-999.0,98,-99.99,,,0.00,Acu-Link.com,2013-04-14 05:12:00,
2013-04-14 00:27:00,46.8,46.3,29.71,NNW,337,0.0,-999.0,98,-99.99,,,0.00,Acu-Link.com,2013-04-14 05:27:00,
2013-04-14 00:42:00,46.4,45.9,29.71,NNW,337,0.0,-999.0,98,-99.99,,,0.00,Acu-Link.com,2013-04-14 05:42:00,
2013-04-14 00:57:00,46.4,45.9,29.71,NNW,337,0.0,-999.0,98,-99.99,,,0.00,Acu-Link.com,2013-04-14 05:57:00,
2013-04-14 01:12:00,45.9,45.4,29.71,NNW,337,0.0,-999.0,98,-99.99,,,0.00,Acu-Link.com,2013-04-14 06:12:00,
2013-04-14 01:27:00,46.0,45.5,29.70,NNW,337,0.0,-999.0,98,-99.99,,,0.00,Acu-Link.com,2013-04-14 06:27:00,
2013-04-14 01:42:00,45.5,45.0,29.69,NNW,337,0.0,-999.0,98,-99.99,,,0.00,Acu-Link.com,2013-04-14 06:42:00,
2013-04-14 01:57:00,45.3,44.8,29.69,NNW,337,0.0,-999.0,98,-99.99,,,0.00,Acu-Link.com,2013-04-14 06:57:00,
2013-04-14 02:12:00,45.3,44.8,29.69,NNW,337,0.0,-999.0,98,-99.99,,,0.00,Acu-Link.com,2013-04-14 07:12:00,
2013-04-14 02:28:00,44.6,44.1,29.69,NNW,337,0.0,-999.0,98,-99.99,,,0.00,Acu-Link.com,2013-04-14 07:28:00,
2013-04-14 02:43:00,44.6,44.1,29.69,NNW,337,0.0,-999.0,98,-99.99,,,0.00,Acu-Link.com,2013-04-14 07:43:00,
2013-04-14 02:58:00,44.4,43.9,29.69,NNW,337,0.0,-999.0,98,-99.99,,,0.00,Acu-Link.com,2013-04-14 07:58:00,
2013-04-14 03:14:00,44.4,43.9,29.69,NNW,337,0.0,-999.0,98,-99.99,,,0.00,Acu-Link.com,2013-04-14 08:14:00,
2013-04-14 03:29:00,44.2,43.7,29.70,NNW,337,0.0,-999.0,98,-99.99,,,0.00,Acu-Link.com,2013-04-14 08:29:00,
2013-04-14 03:45:00,44.2,43.7,29.69,NNW,337,0.0,-999.0,98,-99.99,,,0.00,Acu-Link.com,2013-04-14 08:45:00,
2013-04-14 04:00:00,44.1,43.6,29.69,NNW,337,0.0,-999.0,98,-99.99,,,0.00,Acu-Link.com,2013-04-14 09:00:00,
2013-04-14 04:15:00,44.1,43.6,29.68,NNW,337,0.0,-999.0,98,-99.99,,,0.00,Acu-Link.com,2013-04-14 09:15:00,
2013-04-14 04:30:00,44.1,43.6,29.70,NNW,337,0.0,-999.0,98,-99.99,,,0.00,Acu-Link.com,2013-04-14 09:30:00,
2013-04-14 04:45:00,44.1,43.6,29.69,NNW,337,0.0,-999.0,98,-99.99,,,0.00,Acu-Link.com,2013-04-14 09:45:00,
2013-04-14 05:00:00,44.4,43.9,29.70,NNW,337,0.0,-999.0,98,-99.99,,,0.00,Acu-Link.com,2013-04-14 10:00:00,
2013-04-14 05:15:00,44.8,44.3,29.71,NNW,337,0.0,-999.0,98,-99.99,,,0.00,Acu-Link.com,2013-04-14 10:15:00,
2013-04-14 05:30:00,44.8,44.3,29.70,NNW,337,0.0,-999.0,98,-99.99,,,0.00,Acu-Link.com,2013-04-14 10:30:00,
2013-04-14 05:45:00,45.1,44.6,29.70,NNW,337,0.0,-999.0,98,-99.99,,,0.00,Acu-Link.com,2013-04-14 10:45:00,
2013-04-14 06:01:00,45.7,45.2,29.70,NNW,337,0.0,-999.0,98,-99.99,,,0.00,Acu-Link.com,2013-04-14 11:01:00,
2013-04-14 07:01:00,47.1,46.6,29.71,NNW,337,0.0,-999.0,98,-99.99,,,0.00,Acu-Link.com,2013-04-14 12:01:00,
2013-04-14 07:16:00,47.7,47.2,29.70,NNW,337,0.0,-999.0,98,-99.99,,,0.00,Acu-Link.com,2013-04-14 12:16:00,
2013-04-14 07:46:00,49.5,49.0,29.71,NNW,337,0.0,-999.0,98,-99.99,,,0.00,Acu-Link.com,2013-04-14 12:46:00,
2013-04-14 08:02:00,50.4,49.9,29.72,NNW,337,0.0,-999.0,98,-99.99,,,0.00,Acu-Link.com,2013-04-14 13:02:00,
2013-04-14 08:17:00,51.4,50.9,29.73,NNW,337,0.0,-999.0,98,-99.99,,,0.00,Acu-Link.com,2013-04-14 13:17:00,
2013-04-14 08:47:00,53.4,52.8,29.72,NNW,337,0.0,-999.0,98,-99.99,,,0.00,Acu-Link.com,2013-04-14 13:47:00,
2013-04-14 09:02:00,53.6,53.0,29.72,NNW,337,0.0,-999.0,98,-99.99,,,0.00,Acu-Link.com,2013-04-14 14:02:00,
2013-04-14 09:17:00,54.1,53.5,29.71,North,0,1.7,-999.0,98,-99.99,,,0.00,Acu-Link.com,2013-04-14 14:17:00,
2013-04-14 09:32:00,54.9,54.3,29.70,North,0,0.0,-999.0,98,-99.99,,,0.00,Acu-Link.com,2013-04-14 14:32:00,
2013-04-14 09:47:00,55.2,54.6,29.70,North,0,0.0,-999.0,98,-99.99,,,0.00,Acu-Link.com,2013-04-14 14:47:00,
2013-04-14 10:02:00,55.2,54.6,29.72,North,0,0.0,-999.0,98,-99.99,,,0.00,Acu-Link.com,2013-04-14 15:02:00,
2013-04-14 10:17:00,55.4,54.8,29.74,ESE,112,1.7,-999.0,98,-99.99,,,0.00,Acu-Link.com,2013-04-14 15:17:00,
2013-04-14 10:33:00,56.3,55.7,29.75,North,0,0.0,-999.0,98,-99.99,,,0.00,Acu-Link.com,2013-04-14 15:33:00,
2013-04-14 10:48:00,56.8,56.2,29.74,North,0,0.0,-999.0,98,-99.99,,,0.00,Acu-Link.com,2013-04-14 15:48:00,
2013-04-14 11:03:00,56.8,56.2,29.76,SE,135,1.7,-999.0,98,-99.99,,,0.00,Acu-Link.com,2013-04-14 16:03:00,
2013-04-14 11:18:00,57.6,57.0,29.76,East,90,0.0,-999.0,98,-99.99,,,0.00,Acu-Link.com,2013-04-14 16:18:00,
2013-04-14 11:33:00,58.3,57.7,29.77,SE,135,10.9,-999.0,98,-99.99,,,0.00,Acu-Link.com,2013-04-14 16:33:00,
2013-04-14 11:48:00,57.2,56.6,29.76,West,270,2.2,-999.0,98,-99.99,,,0.00,Acu-Link.com,2013-04-14 16:48:00,
2013-04-14 12:04:00,56.7,56.1,29.76,WNW,292,0.0,-999.0,98,-99.99,,,0.02,Acu-Link.com,2013-04-14 17:04:00,
2013-04-14 12:19:00,56.5,55.9,29.76,WSW,247,0.0,-999.0,98,-99.99,,,0.04,Acu-Link.com,2013-04-14 17:19:00,
2013-04-14 12:34:00,56.8,56.2,29.76,North,0,0.0,-999.0,98,-99.99,,,0.04,Acu-Link.com,2013-04-14 17:34:00,
2013-04-14 12:49:00,57.0,56.4,29.76,South,180,0.0,-999.0,98,-99.99,,,0.07,Acu-Link.com,2013-04-14 17:49:00,
2013-04-14 13:04:00,56.8,56.2,29.75,ESE,112,2.7,-999.0,98,-99.99,,,0.08,Acu-Link.com,2013-04-14 18:04:00,
2013-04-14 13:19:00,57.4,56.8,29.75,South,180,2.7,-999.0,98,-99.99,,,0.09,Acu-Link.com,2013-04-14 18:19:00,
2013-04-14 13:34:00,57.7,57.1,29.74,SSE,157,5.8,-999.0,98,-99.99,,,0.09,Acu-Link.com,2013-04-14 18:34:00,
2013-04-14 13:49:00,57.9,57.3,29.71,SSE,157,5.8,-999.0,98,-99.99,,,0.09,Acu-Link.com,2013-04-14 18:49:00,
2013-04-14 14:04:00,58.8,58.2,29.70,South,180,3.7,-999.0,98,-99.99,,,0.09,Acu-Link.com,2013-04-14 19:04:00,
2013-04-14 14:19:00,58.6,58.0,29.68,West,270,4.2,-999.0,98,-99.99,,,0.10,Acu-Link.com,2013-04-14 19:19:00,
2013-04-14 14:35:00,59.0,58.4,29.64,NE,45,4.2,-999.0,98,-99.99,,,0.10,Acu-Link.com,2013-04-14 19:35:00,
2013-04-14 14:50:00,60.3,59.7,29.60,ESE,112,6.3,-999.0,98,-99.99,,,0.10,Acu-Link.com,2013-04-14 19:50:00,
2013-04-14 15:05:00,60.4,59.8,29.59,SSE,157,3.7,-999.0,98,-99.99,,,0.10,Acu-Link.com,2013-04-14 20:05:00,
2013-04-14 15:20:00,59.9,59.3,29.59,SE,135,9.9,-999.0,98,-99.99,,,0.10,Acu-Link.com,2013-04-14 20:20:00,
2013-04-14 15:35:00,59.7,59.1,29.61,East,90,3.7,-999.0,98,-99.99,,,0.10,Acu-Link.com,2013-04-14 20:35:00,
2013-04-14 15:50:00,59.4,58.8,29.60,ESE,112,4.2,-999.0,98,-99.99,,,0.10,Acu-Link.com,2013-04-14 20:50:00,
2013-04-14 16:05:00,59.4,58.8,29.59,SSE,157,3.2,-999.0,98,-99.99,,,0.10,Acu-Link.com,2013-04-14 21:05:00,
2013-04-14 16:21:00,59.4,58.8,29.59,East,90,4.7,-999.0,98,-99.99,,,0.10,Acu-Link.com,2013-04-14 21:21:00,
2013-04-14 16:36:00,59.0,58.4,29.61,ESE,112,5.3,-999.0,98,-99.99,,,0.10,Acu-Link.com,2013-04-14 21:36:00,
2013-04-14 17:06:00,59.0,58.4,29.61,South,180,7.8,-999.0,98,-99.99,,,0.10,Acu-Link.com,2013-04-14 22:06:00,
2013-04-14 17:36:00,58.6,58.0,29.63,South,180,0.0,-999.0,98,-99.99,,,0.10,Acu-Link.com,2013-04-14 22:36:00,
2013-04-14 17:51:00,58.6,58.0,29.62,NE,45,2.2,-999.0,98,-99.99,,,0.10,Acu-Link.com,2013-04-14 22:51:00,
2013-04-14 18:06:00,58.3,57.7,29.61,ENE,67,5.3,-999.0,98,-99.99,,,0.10,Acu-Link.com,2013-04-14 23:06:00,
2013-04-14 18:22:00,57.7,57.1,29.62,NNE,22,0.0,-999.0,98,-99.99,,,0.10,Acu-Link.com,2013-04-14 23:22:00,
2013-04-14 18:52:00,57.2,56.6,29.61,ENE,67,1.7,-999.0,98,-99.99,,,0.10,Acu-Link.com,2013-04-14 23:52:00,
2013-04-14 19:07:00,57.0,56.4,29.60,ESE,112,0.0,-999.0,98,-99.99,,,0.10,Acu-Link.com,2013-04-15 00:07:00,
2013-04-14 19:22:00,56.8,56.2,29.60,East,90,0.0,-999.0,98,-99.99,,,0.10,Acu-Link.com,2013-04-15 00:22:00,
2013-04-14 19:37:00,56.7,56.1,29.61,NE,45,0.0,-999.0,98,-99.99,,,0.10,Acu-Link.com,2013-04-15 00:37:00,
2013-04-14 19:52:00,56.7,56.1,29.63,North,0,0.0,-999.0,98,-99.99,,,0.10,Acu-Link.com,2013-04-15 00:52:00,
2013-04-14 20:07:00,56.7,56.1,29.63,ENE,67,0.0,-999.0,98,-99.99,,,0.10,Acu-Link.com,2013-04-15 01:07:00,
2013-04-14 20:22:00,56.5,55.9,29.63,North,0,0.0,-999.0,98,-99.99,,,0.10,Acu-Link.com,2013-04-15 01:22:00,
2013-04-14 20:38:00,56.5,55.9,29.62,North,0,0.0,-999.0,98,-99.99,,,0.10,Acu-Link.com,2013-04-15 01:38:00,
2013-04-14 20:53:00,56.5,55.9,29.62,North,0,0.0,-999.0,98,-99.99,,,0.10,Acu-Link.com,2013-04-15 01:53:00,
2013-04-14 21:08:00,56.5,55.9,29.63,North,0,0.0,-999.0,98,-99.99,,,0.10,Acu-Link.com,2013-04-15 02:08:00,
2013-04-14 21:23:00,56.5,55.9,29.62,North,0,0.0,-999.0,98,-99.99,,,0.10,Acu-Link.com,2013-04-15 02:23:00,
2013-04-14 21:38:00,56.5,55.9,29.62,North,0,0.0,-999.0,98,-99.99,,,0.10,Acu-Link.com,2013-04-15 02:38:00,
2013-04-14 21:53:00,56.5,55.9,29.62,North,0,0.0,-999.0,98,-99.99,,,0.10,Acu-Link.com,2013-04-15 02:53:00,
2013-04-14 22:08:00,56.3,55.7,29.63,North,0,0.0,-999.0,98,-99.99,,,0.10,Acu-Link.com,2013-04-15 03:08:00,
2013-04-14 22:23:00,56.1,55.5,29.63,North,0,0.0,-999.0,98,-99.99,,,0.10,Acu-Link.com,2013-04-15 03:23:00,
2013-04-14 22:38:00,56.1,55.5,29.63,North,0,0.0,-999.0,98,-99.99,,,0.10,Acu-Link.com,2013-04-15 03:38:00,
2013-04-14 23:09:00,56.1,55.5,29.64,North,0,0.0,-999.0,98,-99.99,,,0.10,Acu-Link.com,2013-04-15 04:09:00,
2013-04-14 23:24:00,56.1,55.5,29.63,North,0,0.0,-999.0,98,-99.99,,,0.10,Acu-Link.com,2013-04-15 04:24:00,
2013-04-14 23:39:00,56.1,55.5,29.63,North,0,0.0,-999.0,98,-99.99,,,0.10,Acu-Link.com,2013-04-15 04:39:00,
2013-04-14 23:54:00,56.1,55.5,29.63,North,0,0.0,-999.0,98,-99.99,,,0.10,Acu-Link.com,2013-04-15 04:54:00,